Time;durP1;ratioP1;P1;durP2;ratioP2;P2;SDS_P1;SDS_P2;PMS_P1;PMS_P2;Temp;Humidity;BMP_temperature;BMP_pressure;BME280_temperature;BME280_humidity;BME280_pressure;Samples;Min_cycle;Max_cycle;Signal;HPM_P1;HPM_P2
2021/01/09 00:00:48;;;;;;;4.90;3.33;;;;;;;;;;5089897;28;20024;-66
2021/01/09 00:03:14;;;;;;;8.23;4.68;;;;;;;;;;5090658;28;20495;-67
2021/01/09 00:05:40;;;;;;;9.40;4.28;;;;;;;;;;5091235;28;20024;-66
2021/01/09 00:08:06;;;;;;;6.22;3.97;;;;;;;;;;5090298;28;20107;-67
2021/01/09 00:10:32;;;;;;;4.82;3.72;;;;;;;;;;5091075;28;20103;-67
2021/01/09 00:12:58;;;;;;;5.97;4.22;;;;;;;;;;5090956;28;20020;-67
2021/01/09 00:15:24;;;;;;;6.22;4.03;;;;;;;;;;5090551;28;20021;-67
2021/01/09 00:17:50;;;;;;;6.07;3.80;;;;;;;;;;5091058;28;20031;-64
2021/01/09 00:20:17;;;;;;;7.53;3.85;;;;;;;;;;5090465;28;20050;-64
2021/01/09 00:22:43;;;;;;;7.47;3.83;;;;;;;;;;5090715;28;20036;-64
2021/01/09 00:25:10;;;;;;;4.57;3.75;;;;;;;;;;5089330;28;20020;-64
2021/01/09 00:27:36;;;;;;;6.93;4.50;;;;;;;;;;5090654;28;20028;-65
2021/01/09 00:30:03;;;;;;;6.25;4.40;;;;;;;;;;5090637;28;20024;-64
2021/01/09 00:32:29;;;;;;;6.75;4.47;;;;;;;;;;5090157;28;20491;-66
2021/01/09 00:34:55;;;;;;;6.38;4.10;;;;;;;;;;5090625;28;20028;-64
2021/01/09 00:37:24;;;;;;;6.95;4.07;;;;;;;;;;5089465;28;20395;-64
2021/01/09 00:39:50;;;;;;;8.82;4.57;;;;;;;;;;5090667;28;20034;-64
2021/01/09 00:42:16;;;;;;;8.07;4.78;;;;;;;;;;5090293;28;20119;-64
2021/01/09 00:44:43;;;;;;;7.70;4.00;;;;;;;;;;5090609;28;20065;-64
2021/01/09 00:47:09;;;;;;;5.70;3.63;;;;;;;;;;5089453;28;20581;-65
2021/01/09 00:49:35;;;;;;;6.05;4.15;;;;;;;;;;5092924;28;20060;-64
2021/01/09 00:52:01;;;;;;;5.68;3.92;;;;;;;;;;5094249;28;20434;-65
2021/01/09 00:54:27;;;;;;;7.57;4.90;;;;;;;;;;5093821;28;20119;-64
2021/01/09 00:56:56;;;;;;;6.07;4.15;;;;;;;;;;5094313;28;20024;-65
2021/01/09 00:59:25;;;;;;;7.45;3.40;;;;;;;;;;5093842;28;20043;-64
2021/01/09 01:01:51;;;;;;;8.80;4.47;;;;;;;;;;5093821;28;20028;-64
2021/01/09 01:04:18;;;;;;;5.22;4.00;;;;;;;;;;5093821;28;20032;-64
2021/01/09 01:06:44;;;;;;;7.28;4.65;;;;;;;;;;5093394;28;20496;-65
2021/01/09 01:09:11;;;;;;;6.65;4.65;;;;;;;;;;5093977;28;20085;-64
2021/01/09 01:11:37;;;;;;;6.07;4.22;;;;;;;;;;5094415;28;20146;-65
2021/01/09 01:14:03;;;;;;;6.25;4.40;;;;;;;;;;5094370;28;20452;-64
2021/01/09 01:16:29;;;;;;;6.88;4.68;;;;;;;;;;5093184;28;20020;-64
2021/01/09 01:18:56;;;;;;;4.97;3.70;;;;;;;;;;5092302;28;20038;-67
2021/01/09 01:21:22;;;;;;;5.05;3.40;;;;;;;;;;5093103;28;20022;-67
2021/01/09 01:23:49;;;;;;;7.57;4.90;;;;;;;;;;5093123;28;20043;-65
2021/01/09 01:26:15;;;;;;;7.38;4.47;;;;;;;;;;5093629;28;20095;-66
2021/01/09 01:28:42;;;;;;;7.07;4.85;;;;;;;;;;5093597;28;20028;-66
2021/01/09 01:31:08;;;;;;;6.10;4.30;;;;;;;;;;5093398;28;20016;-66
2021/01/09 01:33:34;;;;;;;7.18;4.68;;;;;;;;;;5093988;28;20126;-67
2021/01/09 01:36:01;;;;;;;6.93;4.70;;;;;;;;;;5093325;28;20515;-66
2021/01/09 01:38:27;;;;;;;7.60;4.80;;;;;;;;;;5092887;28;20054;-64
2021/01/09 01:41:04;;;;;;;6.03;4.53;;;;;;;;;;5093453;28;20116;-65
2021/01/09 01:43:30;;;;;;;8.00;4.55;;;;;;;;;;5093112;28;20040;-64
2021/01/09 01:45:58;;;;;;;6.43;4.65;;;;;;;;;;5092721;28;20046;-65
2021/01/09 01:48:24;;;;;;;5.85;4.25;;;;;;;;;;5092436;28;20032;-64
2021/01/09 01:50:50;;;;;;;8.43;4.30;;;;;;;;;;5093224;28;20103;-65
2021/01/09 01:53:16;;;;;;;7.00;4.38;;;;;;;;;;5092867;28;20460;-64
2021/01/09 01:55:43;;;;;;;7.57;4.72;;;;;;;;;;5091913;28;20039;-64
2021/01/09 01:58:09;;;;;;;6.25;4.22;;;;;;;;;;5092291;28;20516;-64
2021/01/09 02:00:35;;;;;;;7.15;4.30;;;;;;;;;;5092356;28;20111;-64
2021/01/09 02:03:02;;;;;;;6.55;4.30;;;;;;;;;;5092965;28;20051;-64
2021/01/09 02:05:34;;;;;;;8.90;5.13;;;;;;;;;;5092577;28;20028;-64
2021/01/09 02:08:01;;;;;;;6.65;4.65;;;;;;;;;;5092112;28;20052;-64
2021/01/09 02:10:27;;;;;;;6.22;4.45;;;;;;;;;;5092517;28;20926;-64
2021/01/09 02:13:08;;;;;;;7.03;5.40;;;;;;;;;;5092988;28;20026;-64
2021/01/09 02:15:35;;;;;;;6.20;4.63;;;;;;;;;;5092630;28;20450;-65
2021/01/09 02:18:01;;;;;;;6.13;4.70;;;;;;;;;;5092834;28;20030;-64
2021/01/09 02:20:27;;;;;;;6.82;4.20;;;;;;;;;;5092330;28;20027;-64
2021/01/09 02:22:54;;;;;;;8.50;4.93;;;;;;;;;;5092362;28;20032;-65
2021/01/09 02:25:20;;;;;;;14.55;4.57;;;;;;;;;;5092288;28;20020;-65
2021/01/09 02:27:46;;;;;;;6.40;5.00;;;;;;;;;;5091748;28;20132;-65
2021/01/09 02:30:14;;;;;;;6.60;4.95;;;;;;;;;;5092077;28;20031;-64
2021/01/09 02:32:43;;;;;;;7.72;4.22;;;;;;;;;;5092738;28;20081;-64
2021/01/09 02:35:10;;;;;;;7.75;4.95;;;;;;;;;;5092005;28;20016;-65
2021/01/09 02:37:36;;;;;;;5.85;4.60;;;;;;;;;;5090989;28;20123;-64
2021/01/09 02:40:02;;;;;;;7.07;4.65;;;;;;;;;;5092213;28;20442;-64
2021/01/09 02:42:28;;;;;;;6.43;4.80;;;;;;;;;;5091799;28;20118;-64
2021/01/09 02:44:55;;;;;;;7.57;5.00;;;;;;;;;;5092548;28;20454;-64
2021/01/09 02:47:21;;;;;;;10.60;5.05;;;;;;;;;;5092205;28;20100;-66
2021/01/09 02:49:47;;;;;;;6.55;4.50;;;;;;;;;;5091551;28;20103;-64
2021/01/09 02:52:13;;;;;;;8.25;5.07;;;;;;;;;;5091889;28;20028;-65
2021/01/09 02:54:39;;;;;;;10.13;4.95;;;;;;;;;;5091547;28;20073;-67
2021/01/09 02:57:05;;;;;;;6.72;4.70;;;;;;;;;;5092208;28;20047;-68
2021/01/09 02:59:31;;;;;;;9.02;5.20;;;;;;;;;;5091813;28;20028;-65
2021/01/09 03:01:57;;;;;;;5.57;4.50;;;;;;;;;;5091159;28;20365;-64
2021/01/09 03:04:23;;;;;;;7.70;4.60;;;;;;;;;;5091826;28;20400;-65
2021/01/09 03:06:49;;;;;;;7.00;4.90;;;;;;;;;;5091491;28;20028;-66
2021/01/09 03:09:15;;;;;;;7.25;4.78;;;;;;;;;;5090990;28;20105;-64
2021/01/09 03:11:41;;;;;;;6.10;4.60;;;;;;;;;;5090787;28;20491;-64
2021/01/09 03:14:07;;;;;;;5.43;4.60;;;;;;;;;;5091526;28;20052;-64
2021/01/09 03:16:33;;;;;;;5.82;4.50;;;;;;;;;;5091621;28;20113;-64
2021/01/09 03:18:59;;;;;;;9.48;5.22;;;;;;;;;;5091815;28;20031;-63
2021/01/09 03:21:25;;;;;;;8.40;5.10;;;;;;;;;;5090568;28;20032;-64
2021/01/09 03:23:51;;;;;;;6.38;4.82;;;;;;;;;;5091230;28;20496;-64
2021/01/09 03:26:17;;;;;;;6.57;4.80;;;;;;;;;;5090798;28;20028;-64
2021/01/09 03:28:43;;;;;;;7.55;5.18;;;;;;;;;;5091162;28;20074;-64
2021/01/09 03:31:09;;;;;;;6.03;4.68;;;;;;;;;;5090958;28;20121;-64
2021/01/09 03:33:35;;;;;;;6.97;5.07;;;;;;;;;;5091636;28;20024;-66
2021/01/09 03:36:01;;;;;;;6.90;5.10;;;;;;;;;;5091264;28;20039;-66
2021/01/09 03:38:27;;;;;;;5.80;4.43;;;;;;;;;;5090274;28;20946;-64
2021/01/09 03:40:53;;;;;;;6.85;5.55;;;;;;;;;;5091458;28;20028;-64
2021/01/09 03:43:19;;;;;;;5.03;4.32;;;;;;;;;;5089279;28;20093;-64
2021/01/09 03:45:45;;;;;;;6.43;5.00;;;;;;;;;;5090957;28;20480;-65
2021/01/09 03:48:11;;;;;;;6.97;5.18;;;;;;;;;;5090465;28;20044;-64
2021/01/09 03:50:37;;;;;;;7.32;5.05;;;;;;;;;;5091051;28;20142;-65
2021/01/09 03:53:03;;;;;;;8.57;4.90;;;;;;;;;;5091111;28;20028;-64
2021/01/09 03:55:29;;;;;;;6.05;5.10;;;;;;;;;;5090716;28;20400;-67
2021/01/09 03:57:55;;;;;;;6.70;4.82;;;;;;;;;;5090734;28;20111;-65
2021/01/09 04:00:21;;;;;;;6.55;4.85;;;;;;;;;;5089273;28;20173;-64
2021/01/09 04:02:47;;;;;;;6.07;4.97;;;;;;;;;;5090838;28;20036;-64
2021/01/09 04:05:13;;;;;;;9.20;5.35;;;;;;;;;;5090714;28;20031;-67
2021/01/09 04:07:39;;;;;;;20.10;5.15;;;;;;;;;;5090357;28;20027;-68
2021/01/09 04:10:06;;;;;;;5.55;4.43;;;;;;;;;;5090998;28;20039;-67
2021/01/09 04:12:32;;;;;;;8.55;4.70;;;;;;;;;;5090285;28;20052;-67
2021/01/09 04:14:58;;;;;;;7.00;4.88;;;;;;;;;;5091168;28;20032;-66
2021/01/09 04:17:24;;;;;;;6.10;4.70;;;;;;;;;;5090516;28;20434;-65
2021/01/09 04:19:50;;;;;;;6.78;4.40;;;;;;;;;;5091036;28;20074;-66
2021/01/09 04:22:16;;;;;;;8.15;4.82;;;;;;;;;;5090729;28;20032;-64
2021/01/09 04:24:42;;;;;;;6.55;4.45;;;;;;;;;;5094558;28;20032;-64
2021/01/09 04:27:08;;;;;;;6.82;4.40;;;;;;;;;;5115380;28;20024;-64
2021/01/09 04:29:34;;;;;;;8.55;4.80;;;;;;;;;;5112953;28;20027;-64
2021/01/09 04:32:00;;;;;;;5.75;4.68;;;;;;;;;;5094991;28;20028;-64
2021/01/09 04:34:26;;;;;;;22.10;4.38;;;;;;;;;;5094750;28;20031;-63
2021/01/09 04:36:53;;;;;;;5.82;4.28;;;;;;;;;;5094444;28;20028;-64
2021/01/09 04:39:20;;;;;;;5.65;4.60;;;;;;;;;;5094123;28;20066;-64
2021/01/09 04:41:46;;;;;;;6.43;5.10;;;;;;;;;;5093996;28;20479;-67
2021/01/09 04:44:12;;;;;;;5.43;4.43;;;;;;;;;;5094395;28;20039;-67
2021/01/09 04:46:59;;;;;;;6.72;4.38;;;;;;;;;;5093758;28;20032;-67
2021/01/09 04:49:25;;;;;;;;;;;;;;;;;;5094869;28;20042;-67
2021/01/09 04:51:52;;;;;;;6.60;4.80;;;;;;;;;;5094363;28;19991;-68
2021/01/09 04:54:19;;;;;;;5.63;4.35;;;;;;;;;;5094584;28;20502;-68
2021/01/09 04:56:50;;;;;;;4.80;4.15;;;;;;;;;;5094148;28;20016;-66
2021/01/09 04:59:17;;;;;;;6.03;4.50;;;;;;;;;;5093955;28;20391;-65
2021/01/09 05:01:43;;;;;;;5.65;4.43;;;;;;;;;;5093325;28;20028;-65
2021/01/09 05:04:10;;;;;;;6.55;5.20;;;;;;;;;;5094072;28;20081;-64
2021/01/09 05:06:36;;;;;;;6.07;4.65;;;;;;;;;;5093707;28;20555;-64
2021/01/09 05:09:03;;;;;;;5.47;4.43;;;;;;;;;;5093489;28;20565;-64
2021/01/09 05:11:31;;;;;;;5.25;4.28;;;;;;;;;;5094043;28;20412;-66
2021/01/09 05:13:58;;;;;;;6.28;3.80;;;;;;;;;;5094113;28;20052;-66
2021/01/09 05:16:25;;;;;;;5.35;3.92;;;;;;;;;;5093931;28;20038;-67
2021/01/09 05:18:52;;;;;;;6.30;4.60;;;;;;;;;;5093264;28;20471;-66
2021/01/09 05:21:18;;;;;;;5.75;3.75;;;;;;;;;;5093799;28;20463;-66
2021/01/09 05:23:54;;;;;;;5.13;4.28;;;;;;;;;;5093005;28;20079;-66
2021/01/09 05:26:20;;;;;;;5.28;3.95;;;;;;;;;;5093611;28;20016;-66
2021/01/09 05:28:47;;;;;;;5.47;4.20;;;;;;;;;;5093217;28;20138;-66
2021/01/09 05:31:14;;;;;;;9.32;3.72;;;;;;;;;;5092985;28;20396;-66
2021/01/09 05:33:41;;;;;;;4.47;4.00;;;;;;;;;;5092574;28;20085;-66
2021/01/09 05:36:07;;;;;;;5.72;3.97;;;;;;;;;;5093468;28;20028;-66
2021/01/09 05:38:37;;;;;;;6.05;4.63;;;;;;;;;;5093340;28;20089;-64
2021/01/09 05:41:04;;;;;;;5.03;3.97;;;;;;;;;;5093273;28;20028;-63
2021/01/09 05:43:30;;;;;;;4.72;4.00;;;;;;;;;;5092927;28;20423;-64
2021/01/09 05:45:57;;;;;;;5.00;4.13;;;;;;;;;;5093266;28;20017;-65
2021/01/09 05:48:23;;;;;;;5.63;4.35;;;;;;;;;;5092825;28;20035;-63
2021/01/09 05:50:49;;;;;;;4.78;3.95;;;;;;;;;;5092507;28;20024;-64
2021/01/09 05:53:35;;;;;;;5.20;4.07;;;;;;;;;;5093370;28;20098;-65
2021/01/09 05:56:02;;;;;;;4.75;3.75;;;;;;;;;;5092786;28;20051;-64
2021/01/09 05:58:28;;;;;;;4.82;3.65;;;;;;;;;;5093254;28;20035;-64
2021/01/09 06:00:55;;;;;;;6.38;4.00;;;;;;;;;;5092060;28;20024;-64
2021/01/09 06:03:23;;;;;;;4.30;3.72;;;;;;;;;;5091967;28;20094;-63
2021/01/09 06:05:50;;;;;;;4.63;3.55;;;;;;;;;;5092496;28;20024;-63
2021/01/09 06:08:19;;;;;;;8.38;4.10;;;;;;;;;;5093175;28;20028;-63
2021/01/09 06:10:47;;;;;;;6.25;3.88;;;;;;;;;;5092213;28;20503;-64
2021/01/09 06:13:13;;;;;;;4.38;3.50;;;;;;;;;;5092948;28;20056;-63
2021/01/09 06:15:42;;;;;;;4.43;3.42;;;;;;;;;;5092367;28;20028;-64
2021/01/09 06:18:09;;;;;;;5.07;3.40;;;;;;;;;;5092940;28;20500;-66
2021/01/09 06:20:36;;;;;;;4.35;3.50;;;;;;;;;;5092193;28;20487;-65
2021/01/09 06:23:02;;;;;;;8.57;4.13;;;;;;;;;;5092693;28;20039;-65
2021/01/09 06:25:32;;;;;;;4.75;3.67;;;;;;;;;;5092515;28;20361;-65
2021/01/09 06:28:02;;;;;;;4.93;3.45;;;;;;;;;;5092420;28;20492;-64
2021/01/09 06:30:30;;;;;;;5.60;3.80;;;;;;;;;;5091851;28;20024;-64
2021/01/09 06:32:56;;;;;;;5.40;3.13;;;;;;;;;;5091352;28;20099;-65
2021/01/09 06:35:22;;;;;;;4.85;3.33;;;;;;;;;;5092439;28;20063;-64
2021/01/09 06:37:49;;;;;;;5.10;3.88;;;;;;;;;;5092014;28;20432;-64
2021/01/09 06:40:15;;;;;;;4.72;3.70;;;;;;;;;;5092426;28;20028;-67
2021/01/09 06:42:42;;;;;;;4.43;3.55;;;;;;;;;;5091881;28;20035;-67
2021/01/09 06:45:09;;;;;;;5.47;3.78;;;;;;;;;;5092236;28;20147;-66
2021/01/09 06:47:35;;;;;;;4.85;3.00;;;;;;;;;;5090879;28;20313;-66
2021/01/09 06:50:24;;;;;;;5.35;3.45;;;;;;;;;;5091242;28;20406;-66
2021/01/09 06:52:53;;;;;;;3.75;2.80;;;;;;;;;;5086068;28;20492;-67
2021/01/09 06:55:38;;;;;;;3.88;3.25;;;;;;;;;;5092016;28;20408;-66
2021/01/09 06:58:04;;;;;;;5.53;4.13;;;;;;;;;;5091352;28;20023;-65
2021/01/09 07:00:30;;;;;;;4.57;3.15;;;;;;;;;;5092003;28;20024;-65
2021/01/09 07:03:16;;;;;;;4.60;3.17;;;;;;;;;;5090537;28;20069;-65
2021/01/09 07:05:51;;;;;;;4.38;3.17;;;;;;;;;;5091760;28;20051;-63
2021/01/09 07:08:30;;;;;;;4.38;3.22;;;;;;;;;;5091676;28;20047;-64
2021/01/09 07:11:00;;;;;;;4.45;3.50;;;;;;;;;;5090806;28;20082;-63
2021/01/09 07:13:27;;;;;;;4.10;3.28;;;;;;;;;;5091860;28;20527;-64
2021/01/09 07:16:10;;;;;;;6.13;3.65;;;;;;;;;;5091078;28;20024;-64
2021/01/09 07:18:44;;;;;;;4.75;3.50;;;;;;;;;;5091583;28;20028;-66
2021/01/09 07:21:11;;;;;;;4.70;3.60;;;;;;;;;;5091675;28;20020;-64
2021/01/09 07:23:38;;;;;;;5.28;3.90;;;;;;;;;;5091141;28;20043;-64
2021/01/09 07:26:05;;;;;;;5.18;4.00;;;;;;;;;;5090871;28;20027;-63
2021/01/09 07:28:35;;;;;;;4.78;3.33;;;;;;;;;;5090841;28;20032;-65
2021/01/09 07:31:05;;;;;;;4.93;3.60;;;;;;;;;;5090388;28;20104;-64
2021/01/09 07:33:32;;;;;;;4.82;3.47;;;;;;;;;;5090551;28;20036;-66
2021/01/09 07:35:59;;;;;;;4.88;3.72;;;;;;;;;;5090949;28;20108;-66
2021/01/09 07:38:25;;;;;;;4.57;3.20;;;;;;;;;;5090177;28;20034;-66
2021/01/09 07:40:52;;;;;;;5.40;3.90;;;;;;;;;;5090906;28;20460;-66
2021/01/09 07:43:37;;;;;;;4.35;3.22;;;;;;;;;;5090810;28;20044;-66
2021/01/09 07:46:22;;;;;;;4.43;3.58;;;;;;;;;;5090947;28;20036;-65
2021/01/09 07:48:48;;;;;;;4.50;3.33;;;;;;;;;;5090607;28;20024;-65
2021/01/09 07:51:14;;;;;;;4.75;3.42;;;;;;;;;;5091112;28;20479;-65
2021/01/09 07:53:44;;;;;;;4.18;3.42;;;;;;;;;;5091399;28;20380;-65
2021/01/09 07:56:10;;;;;;;3.97;3.22;;;;;;;;;;5090839;28;20103;-64
2021/01/09 07:58:46;;;;;;;4.25;3.42;;;;;;;;;;5089851;28;20099;-65
2021/01/09 08:01:12;;;;;;;3.42;2.83;;;;;;;;;;5090178;28;20365;-64
2021/01/09 08:03:39;;;;;;;4.53;3.03;;;;;;;;;;5090133;28;20051;-64
2021/01/09 08:06:05;;;;;;;4.05;3.28;;;;;;;;;;5090795;28;20032;-64
2021/01/09 08:08:31;;;;;;;7.40;3.38;;;;;;;;;;5091080;28;20070;-64
2021/01/09 08:10:57;;;;;;;4.75;3.22;;;;;;;;;;5089592;28;20027;-65
2021/01/09 08:13:23;;;;;;;4.85;3.40;;;;;;;;;;5090712;28;20016;-66
2021/01/09 08:15:49;;;;;;;3.88;2.67;;;;;;;;;;5090316;28;20028;-66
2021/01/09 08:18:15;;;;;;;4.30;3.22;;;;;;;;;;5091092;28;20044;-65
2021/01/09 08:20:41;;;;;;;3.88;2.83;;;;;;;;;;5090724;28;20058;-64
2021/01/09 08:23:08;;;;;;;4.10;2.95;;;;;;;;;;5090651;28;20540;-65
2021/01/09 08:25:42;;;;;;;4.80;3.22;;;;;;;;;;5089927;28;20169;-64
2021/01/09 08:28:08;;;;;;;6.53;2.92;;;;;;;;;;5090265;28;20484;-64
2021/01/09 08:30:35;;;;;;;3.95;2.50;;;;;;;;;;5090262;28;20027;-64
2021/01/09 08:33:07;;;;;;;4.60;2.90;;;;;;;;;;5090288;28;20586;-64
2021/01/09 08:35:34;;;;;;;4.15;3.13;;;;;;;;;;5089819;28;20143;-65
2021/01/09 08:38:01;;;;;;;4.05;2.92;;;;;;;;;;5090413;28;20534;-64
2021/01/09 08:40:27;;;;;;;3.50;2.58;;;;;;;;;;5089505;28;20395;-64
2021/01/09 08:42:54;;;;;;;3.63;2.75;;;;;;;;;;5089906;28;20044;-65
2021/01/09 08:45:34;;;;;;;3.25;2.65;;;;;;;;;;5090314;28;20020;-64
2021/01/09 08:48:00;;;;;;;4.82;2.90;;;;;;;;;;5090763;28;20024;-64
2021/01/09 08:50:27;;;;;;;3.05;2.42;;;;;;;;;;5090040;28;20077;-64
2021/01/09 08:52:53;;;;;;;3.90;3.00;;;;;;;;;;5090015;28;20028;-64
2021/01/09 08:55:20;;;;;;;3.05;2.65;;;;;;;;;;5090370;28;20028;-65
2021/01/09 08:57:47;;;;;;;3.22;2.55;;;;;;;;;;5090734;28;20024;-64
2021/01/09 09:00:13;;;;;;;3.72;2.85;;;;;;;;;;5089816;28;20403;-64
2021/01/09 09:02:39;;;;;;;4.50;3.63;;;;;;;;;;5089343;28;20048;-66
2021/01/09 09:05:06;;;;;;;5.82;2.95;;;;;;;;;;5089193;28;20062;-65
2021/01/09 09:07:33;;;;;;;2.85;2.25;;;;;;;;;;5089996;28;20036;-64
2021/01/09 09:10:00;;;;;;;3.45;2.28;;;;;;;;;;5090733;28;20020;-63
2021/01/09 09:12:26;;;;;;;3.75;2.15;;;;;;;;;;5094123;28;20368;-64
2021/01/09 09:14:56;;;;;;;3.03;2.08;;;;;;;;;;5093679;28;20046;-64
2021/01/09 09:17:23;;;;;;;4.53;2.63;;;;;;;;;;5093450;28;20068;-71
2021/01/09 09:19:49;;;;;;;4.22;2.60;;;;;;;;;;5093690;28;20028;-66
2021/01/09 09:22:15;;;;;;;3.70;2.67;;;;;;;;;;5093971;28;20136;-66
2021/01/09 09:24:45;;;;;;;4.20;3.10;;;;;;;;;;5093577;28;20059;-67
2021/01/09 09:27:20;;;;;;;10.23;3.70;;;;;;;;;;5093419;28;20472;-72
2021/01/09 09:29:46;;;;;;;4.90;3.50;;;;;;;;;;5093291;28;20043;-70
2021/01/09 09:32:28;;;;;;;5.32;3.65;;;;;;;;;;5093164;28;20051;-79
2021/01/09 09:34:55;;;;;;;7.60;2.80;;;;;;;;;;5092505;28;20028;-71
2021/01/09 09:37:21;;;;;;;10.60;2.65;;;;;;;;;;5093274;28;20406;-68
2021/01/09 09:57:23;;;;;;;4.88;2.30;;;;;;;;;;5129679;27;20337;-71
2021/01/09 10:00:08;;;;;;;3.97;2.92;;;;;;;;;;5128700;28;20556;-71
2021/01/09 10:02:35;;;;;;;7.10;3.90;;;;;;;;;;5128098;28;20015;-71
2021/01/09 10:05:27;;;;;;;7.35;3.88;;;;;;;;;;5135989;27;20042;-71
2021/01/09 10:08:12;;;;;;;6.13;4.15;;;;;;;;;;5124201;28;20115;-70
2021/01/09 10:10:38;;;;;;;5.57;3.95;;;;;;;;;;5128574;28;20118;-71
2021/01/09 10:13:05;;;;;;;8.20;4.75;;;;;;;;;;5130891;28;20414;-71
2021/01/09 10:15:31;;;;;;;8.82;4.40;;;;;;;;;;5128936;28;20517;-73
2021/01/09 10:17:58;;;;;;;8.15;5.00;;;;;;;;;;5128936;28;20021;-73
2021/01/09 10:20:24;;;;;;;10.35;5.57;;;;;;;;;;5128441;28;20397;-72
2021/01/09 10:22:50;;;;;;;6.22;4.22;;;;;;;;;;5128690;28;20645;-72
2021/01/09 10:25:16;;;;;;;8.25;4.63;;;;;;;;;;5129292;28;20110;-72
2021/01/09 10:27:42;;;;;;;9.13;3.90;;;;;;;;;;5128681;28;20020;-71
2021/01/09 10:30:09;;;;;;;5.30;3.63;;;;;;;;;;5128488;28;20054;-71
2021/01/09 10:32:35;;;;;;;6.00;3.67;;;;;;;;;;5128218;28;20028;-71
2021/01/09 10:35:01;;;;;;;5.22;3.80;;;;;;;;;;5128287;28;20083;-71
2021/01/09 10:37:27;;;;;;;5.50;4.05;;;;;;;;;;5128290;28;20019;-72
2021/01/09 10:39:53;;;;;;;6.38;3.42;;;;;;;;;;5128205;28;20024;-73
2021/01/09 10:42:19;;;;;;;4.30;2.72;;;;;;;;;;5128333;28;20028;-72
2021/01/09 10:44:45;;;;;;;4.93;3.28;;;;;;;;;;5109838;28;20059;-70
2021/01/09 10:47:11;;;;;;;11.45;3.33;;;;;;;;;;5128361;28;20035;-70
2021/01/09 10:49:37;;;;;;;8.05;3.50;;;;;;;;;;5127805;28;20027;-70
2021/01/09 10:52:03;;;;;;;4.63;3.40;;;;;;;;;;5141374;27;20023;-71
2021/01/09 10:54:29;;;;;;;4.15;2.75;;;;;;;;;;5127296;28;20084;-73
2021/01/09 10:56:55;;;;;;;6.05;3.55;;;;;;;;;;5127444;28;20035;-74
2021/01/09 10:59:21;;;;;;;4.28;2.75;;;;;;;;;;5110143;28;20449;-72
2021/01/09 11:01:47;;;;;;;11.95;3.22;;;;;;;;;;5127243;28;20559;-72
2021/01/09 11:04:13;;;;;;;3.88;2.80;;;;;;;;;;5127612;28;20487;-73
2021/01/09 11:06:39;;;;;;;5.07;2.85;;;;;;;;;;5126010;28;20033;-72
2021/01/09 11:09:05;;;;;;;4.10;2.67;;;;;;;;;;5114018;28;20015;-72
2021/01/09 11:11:31;;;;;;;5.60;3.10;;;;;;;;;;5114246;28;20028;-73
2021/01/09 11:13:57;;;;;;;6.70;2.85;;;;;;;;;;5114068;28;20023;-73
2021/01/09 11:16:27;;;;;;;4.93;2.88;;;;;;;;;;5114016;28;20035;-73
2021/01/09 11:18:53;;;;;;;4.22;3.28;;;;;;;;;;5113698;28;20024;-73
2021/01/09 11:21:20;;;;;;;4.97;3.22;;;;;;;;;;5113356;28;20031;-71
2021/01/09 11:23:46;;;;;;;3.92;3.00;;;;;;;;;;5113849;28;20072;-72
2021/01/09 11:26:12;;;;;;;4.70;2.95;;;;;;;;;;5113938;28;20031;-73
2021/01/09 11:28:39;;;;;;;4.32;2.88;;;;;;;;;;5113542;28;20106;-71
2021/01/09 11:31:08;;;;;;;4.95;2.90;;;;;;;;;;5113950;28;20421;-72
2021/01/09 11:33:34;;;;;;;5.32;3.70;;;;;;;;;;5113573;28;20031;-72
2021/01/09 11:36:00;;;;;;;5.07;3.10;;;;;;;;;;5113986;28;20384;-73
2021/01/09 11:38:26;;;;;;;4.68;3.08;;;;;;;;;;5113922;28;20030;-72
2021/01/09 11:40:52;;;;;;;4.25;2.97;;;;;;;;;;5113941;28;20098;-72
2021/01/09 11:43:18;;;;;;;5.63;3.25;;;;;;;;;;5113685;28;20027;-71
2021/01/09 11:45:44;;;;;;;4.75;3.35;;;;;;;;;;5113243;28;20376;-71
2021/01/09 11:48:10;;;;;;;3.97;3.20;;;;;;;;;;5113531;28;20032;-71
2021/01/09 11:50:36;;;;;;;5.05;3.67;;;;;;;;;;5112501;28;20027;-71
2021/01/09 11:53:02;;;;;;;4.43;3.35;;;;;;;;;;5113506;28;20395;-72
2021/01/09 11:55:28;;;;;;;4.65;3.08;;;;;;;;;;5113334;28;20536;-72
2021/01/09 11:57:54;;;;;;;4.53;3.47;;;;;;;;;;5113595;28;20024;-72
2021/01/09 12:00:21;;;;;;;4.63;3.60;;;;;;;;;;5113721;28;20023;-73
2021/01/09 12:02:47;;;;;;;4.82;3.97;;;;;;;;;;5112845;28;20163;-73
2021/01/09 12:05:13;;;;;;;5.10;3.60;;;;;;;;;;5113246;28;20024;-72
2021/01/09 12:07:39;;;;;;;4.80;3.70;;;;;;;;;;5094539;28;20535;-73
2021/01/09 12:10:07;;;;;;;5.10;3.75;;;;;;;;;;5113179;28;20107;-72
2021/01/09 12:12:34;;;;;;;4.40;3.55;;;;;;;;;;5112750;28;20019;-73
2021/01/09 12:15:00;;;;;;;4.95;3.67;;;;;;;;;;5113104;28;20036;-73
2021/01/09 12:17:26;;;;;;;5.90;4.13;;;;;;;;;;5112923;28;20523;-73
2021/01/09 12:19:52;;;;;;;7.72;4.22;;;;;;;;;;5111306;28;20111;-73
2021/01/09 12:22:18;;;;;;;5.68;3.95;;;;;;;;;;5112840;28;20080;-72
2021/01/09 12:24:45;;;;;;;5.60;4.30;;;;;;;;;;5112576;28;20028;-73
2021/01/09 12:27:11;;;;;;;6.78;4.32;;;;;;;;;;5112772;28;20031;-73
2021/01/09 12:29:37;;;;;;;4.45;3.88;;;;;;;;;;5112373;28;20019;-73
2021/01/09 12:32:03;;;;;;;5.13;4.20;;;;;;;;;;5112683;28;20441;-72
2021/01/09 12:34:29;;;;;;;7.45;5.43;;;;;;;;;;5112732;28;20024;-71
2021/01/09 12:36:55;;;;;;;4.90;3.70;;;;;;;;;;5112654;28;20028;-72
2021/01/09 12:39:27;;;;;;;6.57;5.35;;;;;;;;;;5112512;28;20085;-73
2021/01/09 12:41:53;;;;;;;5.82;4.78;;;;;;;;;;5112454;28;20028;-72
2021/01/09 12:44:19;;;;;;;5.22;4.30;;;;;;;;;;5112214;28;20019;-72
2021/01/09 12:46:46;;;;;;;5.80;4.20;;;;;;;;;;5111613;28;20023;-71
2021/01/09 12:49:13;;;;;;;6.60;4.90;;;;;;;;;;5094286;28;20446;-72
2021/01/09 12:51:40;;;;;;;5.22;4.32;;;;;;;;;;5112388;28;20023;-73
2021/01/09 12:54:06;;;;;;;5.25;4.25;;;;;;;;;;5112326;28;20102;-73
2021/01/09 12:56:35;;;;;;;5.53;4.07;;;;;;;;;;5111351;28;20058;-73
2021/01/09 12:59:05;;;;;;;8.50;5.70;;;;;;;;;;5111584;28;20023;-73
2021/01/09 13:01:35;;;;;;;6.95;5.43;;;;;;;;;;5111438;28;20118;-72
2021/01/09 13:04:02;;;;;;;9.27;5.90;;;;;;;;;;5111894;28;20102;-71
2021/01/09 13:06:28;;;;;;;8.75;6.20;;;;;;;;;;5112183;28;20073;-73
2021/01/09 13:08:55;;;;;;;7.38;5.55;;;;;;;;;;5093592;28;20038;-72
2021/01/09 13:11:24;;;;;;;8.95;5.13;;;;;;;;;;5112023;28;20383;-71
2021/01/09 13:13:51;;;;;;;8.75;4.88;;;;;;;;;;5111711;28;20467;-69
2021/01/09 13:16:18;;;;;;;6.18;4.72;;;;;;;;;;5092938;28;20036;-69
2021/01/09 13:18:45;;;;;;;9.60;5.53;;;;;;;;;;5111806;28;20447;-74
2021/01/09 13:21:12;;;;;;;8.32;4.65;;;;;;;;;;5111968;28;20114;-74
2021/01/09 13:23:41;;;;;;;7.40;4.70;;;;;;;;;;5111450;28;20023;-73
2021/01/09 13:26:07;;;;;;;5.80;4.63;;;;;;;;;;5111845;28;20032;-74
2021/01/09 13:28:33;;;;;;;6.15;4.93;;;;;;;;;;5111557;28;20019;-73
2021/01/09 13:31:00;;;;;;;6.93;4.40;;;;;;;;;;5093817;28;20026;-73
2021/01/09 13:33:26;;;;;;;9.07;5.28;;;;;;;;;;5112088;28;20103;-72
2021/01/09 13:35:53;;;;;;;9.05;5.78;;;;;;;;;;5111194;28;20447;-69
2021/01/09 13:38:19;;;;;;;8.38;5.38;;;;;;;;;;5111326;28;20065;-70
2021/01/09 13:40:45;;;;;;;10.05;5.85;;;;;;;;;;5110900;28;20027;-71
2021/01/09 13:43:11;;;;;;;10.02;6.78;;;;;;;;;;5110701;28;20032;-69
2021/01/09 13:45:38;;;;;;;11.38;7.28;;;;;;;;;;5110677;28;20039;-70
2021/01/09 13:48:04;;;;;;;9.15;6.68;;;;;;;;;;5111318;28;20024;-70
2021/01/09 13:50:31;;;;;;;11.73;6.70;;;;;;;;;;5111263;28;20028;-72
2021/01/09 13:52:57;;;;;;;12.38;6.78;;;;;;;;;;5111167;28;20084;-70
2021/01/09 13:55:23;;;;;;;11.38;8.52;;;;;;;;;;5111177;28;20130;-68
2021/01/09 13:57:49;;;;;;;10.23;7.68;;;;;;;;;;5110954;28;20043;-69
2021/01/09 14:00:17;;;;;;;12.85;8.45;;;;;;;;;;5111296;28;20471;-70
2021/01/09 14:02:44;;;;;;;12.32;7.40;;;;;;;;;;5111122;28;20027;-74
2021/01/09 14:05:11;;;;;;;10.65;7.90;;;;;;;;;;5111000;28;20487;-73
2021/01/09 14:07:37;;;;;;;8.32;7.15;;;;;;;;;;5110826;28;20024;-72
2021/01/09 14:10:07;;;;;;;14.68;9.40;;;;;;;;;;5110612;28;20098;-68
2021/01/09 14:12:33;;;;;;;15.05;9.10;;;;;;;;;;5110514;28;20092;-76
2021/01/09 14:15:00;;;;;;;14.10;9.98;;;;;;;;;;5110937;28;20024;-73
2021/01/09 14:17:26;;;;;;;13.38;9.25;;;;;;;;;;5111108;28;20031;-77
2021/01/09 14:19:52;;;;;;;11.98;8.40;;;;;;;;;;5110371;28;20112;-78
2021/01/09 14:22:18;;;;;;;12.05;8.77;;;;;;;;;;5110824;28;20051;-77
2021/01/09 14:24:44;;;;;;;15.90;8.88;;;;;;;;;;5110622;28;20104;-76
2021/01/09 14:27:10;;;;;;;21.38;10.52;;;;;;;;;;5092880;28;20031;-74
2021/01/09 14:29:36;;;;;;;32.78;12.02;;;;;;;;;;5110639;28;20027;-74
2021/01/09 14:32:03;;;;;;;39.80;12.73;;;;;;;;;;5112155;28;20032;-75
2021/01/09 14:34:29;;;;;;;39.20;13.30;;;;;;;;;;5111696;28;20072;-78
2021/01/09 14:36:55;;;;;;;41.67;14.60;;;;;;;;;;5110999;28;20023;-74
2021/01/09 14:39:21;;;;;;;32.70;12.77;;;;;;;;;;5111226;28;20031;-74
2021/01/09 14:41:48;;;;;;;25.13;12.23;;;;;;;;;;5111649;28;20104;-74
2021/01/09 14:44:18;;;;;;;31.45;11.80;;;;;;;;;;5127739;27;20487;-73
2021/01/09 14:46:44;;;;;;;33.65;11.52;;;;;;;;;;5126806;27;20439;-74
2021/01/09 14:49:10;;;;;;;28.25;11.10;;;21.50;51.30;;;;;;5113896;27;20394;-73
2021/01/09 14:51:36;;;;;;;24.85;11.25;;;21.50;52.00;;;;;;5117276;27;20023;-77
2021/01/09 14:54:01;;;;;;;24.77;10.68;;;21.40;52.10;;;;;;5113910;28;20023;-74
2021/01/09 14:56:27;;;;;;;24.83;10.77;;;21.40;52.20;;;;;;5114667;28;20031;-73